Flight Track Log - Related Links

Times and Time Zones

All times are in EDT time to prevent confusion due to time zone crossing. See the UAL4843 flight status page for this flight to view local times or setup timezone preferences in your user account.

Time Position Orientation Groundspeed Altitude Reporting Facility
EDT Latitude Longitude Course Direction KTS MPH feet Rate Location/Type
Sun 01:22:00 PM 40.4097 -74.6499 232° Southwest  Level Estimated
Sun 01:23:00 PM 40.3692 -74.7184 232° Southwest  Level Estimated
Sun 01:24:00 PM 40.3286 -74.7867 232° Southwest  Level Estimated
Sun 01:25:00 PM 40.2879 -74.8550 232° Southwest  Level Estimated
Sun 01:26:00 PM 40.2473 -74.9231 232° Southwest  Level Estimated
Sun 01:27:00 PM 40.2065 -74.9912 232° Southwest  Level Estimated
Sun 01:28:00 PM 40.1658 -75.0593 232° Southwest  Level Estimated
Sun 01:29:00 PM 40.1250 -75.1272 232° Southwest  Level Estimated
Sun 01:30:00 PM 40.0841 -75.1950 232° Southwest  Level Estimated
Sun 01:31:00 PM 40.0433 -75.2628 232° Southwest  Level Estimated
Sun 01:32:00 PM 40.0024 -75.3305 232° Southwest  Level Estimated
Sun 01:33:00 PM 39.9614 -75.3981 232° Southwest  Level Estimated
Sun 01:34:00 PM 39.9204 -75.4656 232° Southwest  Level Estimated
Sun 01:35:00 PM 39.8794 -75.5331 232° Southwest  Level Estimated
Sun 01:36:00 PM 39.8383 -75.6004 232° Southwest  Level Estimated
Sun 01:37:00 PM 39.7972 -75.6677 232° Southwest  Level Estimated
Sun 01:38:00 PM 39.7561 -75.7349 231° Southwest  Level Estimated
Sun 01:39:00 PM 39.7149 -75.8020 231° Southwest  Level Estimated
Sun 01:40:00 PM 39.6736 -75.8691 231° Southwest  Level Estimated
Sun 01:41:00 PM 39.6324 -75.9360 231° Southwest  Level Estimated
Sun 01:42:00 PM 39.5911 -76.0029 231° Southwest  Level Estimated
Sun 01:43:00 PM 39.5497 -76.0697 231° Southwest  Level Estimated
Sun 01:44:00 PM 39.5084 -76.1364 231° Southwest  Level Estimated
Sun 01:45:00 PM 39.4669 -76.2031 231° Southwest  Level Estimated
Sun 01:46:00 PM 39.4255 -76.2697 231° Southwest  Level Estimated
Sun 01:47:00 PM 39.3840 -76.3361 231° Southwest  Level Estimated
Sun 01:48:00 PM 39.3425 -76.4025 231° Southwest  Level Estimated
Sun 01:49:00 PM 39.3009 -76.4689 231° Southwest  Level Estimated
Sun 01:50:00 PM 39.2593 -76.5351 231° Southwest  Level Estimated
Sun 01:51:00 PM 39.2176 -76.6013 231° Southwest  Level Estimated
Sun 01:52:00 PM 39.1760 -76.6674 231° Southwest  Level Estimated
Sun 01:53:00 PM 39.1754 -76.6683 231° Southwest  Level Estimated
Sun 01:54:00 PM 39.1754 -76.6683 293° West  Level Estimated
Sun 01:55:00 PM 39.1754 -76.6683 293° West  Level Estimated
Sun 01:56:00 PM 39.1754 -76.6683 293° West  Level Estimated
Sun 01:57:00 PM 39.1754 -76.6683 293° West  Level Estimated
Sun 01:58:00 PM 39.1754 -76.6683 293° West  Level Estimated
Sun 01:59:00 PM 39.1754 -76.6683 293° West  Level Estimated
Sun 02:00:00 PM 39.1754 -76.6683 293° West  Level Estimated
Sun 02:01:00 PM 39.1754 -76.6683 293° West  Level Estimated
Sun 02:02:00 PM 39.1754 -76.6683 293° West  Level Estimated
Sun 02:03:00 PM 39.1754 -76.6683 293° West  Level Estimated
Sun 02:04:00 PM 39.1754 -76.6683 293° West  Level Estimated
Sun 02:05:00 PM 39.1754 -76.6683 293° West  Level Estimated
Sun 02:06:00 PM 39.1754 -76.6683 293° West  Level Estimated
Sun 02:07:00 PM 39.1754 -76.6683 293° West  Level Estimated
Sun 02:08:00 PM 39.1754 -76.6683 293° West  Level Estimated

Login

Don't have an account? Register now (free) for customized features, flight alerts, and more!